createdAt,value
2023-05-16T00:00:30.904Z,0.00
2023-05-16T00:01:30.992Z,0.00
2023-05-16T00:02:31.028Z,0.00
2023-05-16T00:03:31.020Z,0.00
2023-05-16T00:04:30.881Z,0.00
2023-05-16T00:05:30.808Z,0.00
2023-05-16T00:06:30.805Z,0.00
2023-05-16T00:07:30.789Z,0.00
2023-05-16T00:08:30.827Z,0.00
2023-05-16T00:09:30.784Z,0.00
2023-05-16T00:10:30.763Z,0.00
2023-05-16T00:11:30.727Z,0.00
2023-05-16T00:12:30.849Z,0.00
2023-05-16T00:13:30.708Z,0.00
2023-05-16T00:14:30.701Z,0.00
2023-05-16T00:15:30.639Z,0.00
2023-05-16T00:16:30.676Z,0.00
2023-05-16T00:17:30.707Z,0.00
2023-05-16T00:18:30.679Z,0.00
2023-05-16T00:19:30.640Z,0.00
2023-05-16T00:20:30.759Z,0.00
2023-05-16T00:21:30.688Z,0.00
2023-05-16T00:22:30.621Z,0.00
2023-05-16T00:23:30.577Z,0.00
2023-05-16T00:24:30.566Z,0.00
2023-05-16T00:25:30.567Z,0.00
2023-05-16T00:26:30.537Z,0.00
2023-05-16T00:27:51.499Z,0.00
2023-05-16T00:28:30.485Z,0.00
2023-05-16T00:29:30.460Z,0.00
2023-05-16T00:30:30.542Z,0.00
2023-05-16T00:31:30.504Z,0.00
2023-05-16T00:32:31.425Z,0.00
2023-05-16T00:33:30.424Z,0.00
2023-05-16T00:34:30.469Z,0.00
2023-05-16T00:35:30.485Z,0.00
2023-05-16T00:36:30.385Z,0.00
2023-05-16T00:37:30.373Z,0.00
2023-05-16T00:38:30.373Z,0.00
2023-05-16T00:39:30.351Z,0.00
2023-05-16T00:40:30.347Z,0.00
2023-05-16T00:41:30.322Z,0.00
2023-05-16T00:42:30.289Z,0.00
2023-05-16T00:43:30.317Z,0.00
2023-05-16T00:44:30.994Z,0.00
2023-05-16T00:45:30.343Z,0.00
2023-05-16T00:46:30.364Z,0.00
2023-05-16T00:47:30.263Z,0.00
2023-05-16T00:48:30.220Z,0.00
2023-05-16T00:49:30.190Z,0.00
2023-05-16T00:50:30.226Z,0.00
2023-05-16T00:51:30.212Z,0.00
2023-05-16T00:52:30.151Z,0.00
2023-05-16T00:53:30.159Z,0.00
2023-05-16T00:54:30.168Z,0.00
2023-05-16T00:55:30.140Z,0.00
2023-05-16T00:56:30.151Z,0.00
2023-05-16T00:57:30.128Z,0.00
2023-05-16T00:58:30.100Z,0.00
2023-05-16T00:59:30.103Z,0.00
2023-05-16T01:00:30.118Z,0.00
2023-05-16T01:01:30.193Z,0.00
2023-05-16T01:02:30.161Z,0.00
2023-05-16T01:03:30.042Z,0.00
2023-05-16T01:04:30.007Z,0.00
2023-05-16T01:05:30.166Z,0.00
2023-05-16T01:06:30.018Z,0.00
2023-05-16T01:07:30.034Z,0.00
2023-05-16T01:08:29.928Z,0.00
2023-05-16T01:09:29.995Z,0.00
2023-05-16T01:10:29.966Z,0.00
2023-05-16T01:11:29.927Z,0.00
2023-05-16T01:12:29.930Z,0.00
2023-05-16T01:13:29.912Z,0.00
2023-05-16T01:14:32.618Z,0.00
2023-05-16T01:15:30.014Z,0.00
2023-05-16T01:16:29.964Z,0.00
2023-05-16T01:17:29.879Z,0.00
2023-05-16T01:18:29.834Z,0.00
2023-05-16T01:19:29.960Z,0.00
2023-05-16T01:20:29.889Z,0.00
2023-05-16T01:21:29.850Z,0.00
2023-05-16T01:22:29.841Z,0.00
2023-05-16T01:23:29.760Z,0.00
2023-05-16T01:24:29.758Z,0.00
2023-05-16T01:25:29.771Z,0.00
2023-05-16T01:26:29.705Z,0.00
2023-05-16T01:27:29.757Z,0.00
2023-05-16T01:28:38.403Z,0.00
2023-05-16T01:29:29.644Z,0.00
2023-05-16T01:30:29.669Z,0.00
2023-05-16T01:31:29.678Z,0.00
2023-05-16T01:32:29.646Z,0.00
2023-05-16T01:33:29.629Z,0.00
2023-05-16T01:34:29.626Z,0.00
2023-05-16T01:35:29.609Z,0.00
2023-05-16T01:36:29.573Z,0.00
2023-05-16T01:37:29.571Z,0.00
2023-05-16T01:38:29.527Z,0.00
2023-05-16T01:39:29.530Z,0.00
2023-05-16T01:40:29.518Z,0.00
2023-05-16T01:41:29.513Z,0.00
2023-05-16T01:42:29.522Z,0.00
2023-05-16T01:43:29.551Z,0.00
2023-05-16T01:44:29.584Z,0.00
2023-05-16T01:45:29.908Z,0.00
2023-05-16T01:46:29.584Z,0.00
2023-05-16T01:47:29.499Z,0.00
2023-05-16T01:48:29.466Z,0.00
2023-05-16T01:49:29.396Z,0.00
2023-05-16T01:50:29.405Z,0.00
2023-05-16T01:51:29.371Z,0.00
2023-05-16T01:52:29.434Z,0.00
2023-05-16T01:53:29.410Z,0.00
2023-05-16T01:54:29.345Z,0.00
2023-05-16T01:55:29.346Z,0.00
2023-05-16T01:56:29.311Z,0.00
2023-05-16T01:57:29.350Z,0.00
2023-05-16T01:58:29.617Z,0.00
2023-05-16T01:59:29.281Z,0.00
2023-05-16T02:00:29.337Z,0.00
2023-05-16T02:01:29.376Z,0.00
2023-05-16T02:02:29.291Z,0.00
2023-05-16T02:03:29.256Z,0.00
2023-05-16T02:04:29.207Z,0.00
2023-05-16T02:05:29.452Z,0.00
2023-05-16T02:06:29.238Z,0.00
2023-05-16T02:07:29.199Z,0.00
2023-05-16T02:08:29.187Z,0.00
2023-05-16T02:09:29.154Z,0.00
2023-05-16T02:10:29.181Z,0.00
2023-05-16T02:11:29.121Z,0.00
2023-05-16T02:12:29.109Z,0.00
2023-05-16T02:13:29.078Z,0.00
2023-05-16T02:14:29.109Z,0.00
2023-05-16T02:15:29.320Z,0.00
2023-05-16T02:16:29.073Z,0.00
2023-05-16T02:17:29.079Z,0.00
2023-05-16T02:18:29.063Z,0.00
2023-05-16T02:19:29.007Z,0.00
2023-05-16T02:20:29.025Z,0.00
2023-05-16T02:21:29.010Z,0.00
2023-05-16T02:22:29.068Z,0.00
2023-05-16T02:23:29.018Z,0.00
2023-05-16T02:24:29.026Z,0.00
2023-05-16T02:25:29.146Z,0.00
2023-05-16T02:26:28.940Z,0.00
2023-05-16T02:27:28.914Z,0.00
2023-05-16T02:28:28.882Z,0.00
2023-05-16T02:29:28.906Z,0.00
2023-05-16T02:30:28.869Z,0.00
2023-05-16T02:31:28.973Z,0.00
2023-05-16T02:32:28.927Z,0.00
2023-05-16T02:33:28.858Z,0.00
2023-05-16T02:34:28.837Z,0.00
2023-05-16T02:35:29.046Z,0.00
2023-05-16T02:36:28.802Z,0.00
2023-05-16T02:37:28.829Z,0.00
2023-05-16T02:38:28.865Z,0.00
2023-05-16T02:39:28.782Z,0.00
2023-05-16T02:40:28.769Z,0.00
2023-05-16T02:41:28.786Z,0.00
2023-05-16T02:42:28.753Z,0.00
2023-05-16T02:43:28.726Z,0.00
2023-05-16T02:44:28.725Z,0.00
2023-05-16T02:45:28.871Z,0.00
2023-05-16T02:46:28.794Z,0.00
2023-05-16T02:47:28.744Z,0.00
2023-05-16T02:48:28.655Z,0.00
2023-05-16T02:49:28.628Z,0.00
2023-05-16T02:50:28.677Z,0.00
2023-05-16T02:51:28.641Z,0.00
2023-05-16T02:52:28.645Z,0.00
2023-05-16T02:53:28.597Z,0.00
2023-05-16T02:54:28.673Z,0.00
2023-05-16T02:55:28.622Z,0.00
2023-05-16T02:56:28.599Z,0.00
2023-05-16T02:57:28.640Z,0.00
2023-05-16T02:58:28.567Z,0.00
2023-05-16T02:59:28.612Z,0.00
2023-05-16T03:00:28.484Z,0.00
2023-05-16T03:01:28.505Z,0.00
2023-05-16T03:02:28.611Z,0.00
2023-05-16T03:03:28.584Z,0.00
2023-05-16T03:04:28.536Z,0.00
2023-05-16T03:05:28.746Z,0.00
2023-05-16T03:06:28.608Z,0.00
2023-05-16T03:07:28.429Z,4.00
2023-05-16T03:08:28.458Z,0.00
2023-05-16T03:09:28.521Z,4.00
2023-05-16T03:10:28.400Z,4.00
2023-05-16T03:11:28.386Z,0.00
2023-05-16T03:12:28.418Z,4.00
2023-05-16T03:13:28.360Z,4.00
2023-05-16T03:14:28.383Z,4.00
2023-05-16T03:15:28.628Z,4.00
2023-05-16T03:16:28.319Z,8.00
2023-05-16T03:17:28.301Z,8.00
2023-05-16T03:18:28.260Z,12.00
2023-05-16T03:19:28.289Z,8.00
2023-05-16T03:20:28.282Z,12.00
2023-05-16T03:21:28.250Z,12.00
2023-05-16T03:22:28.219Z,16.00
2023-05-16T03:23:28.224Z,16.00
2023-05-16T03:24:28.240Z,20.00
2023-05-16T03:25:28.308Z,20.00
2023-05-16T03:26:28.164Z,24.00
2023-05-16T03:27:28.223Z,24.00
2023-05-16T03:28:31.198Z,24.00
2023-05-16T03:29:28.236Z,28.00
2023-05-16T03:30:28.131Z,32.00
2023-05-16T03:31:28.139Z,36.00
2023-05-16T03:32:28.186Z,48.00
2023-05-16T03:33:28.155Z,52.00
2023-05-16T03:34:28.115Z,52.00
2023-05-16T03:35:28.252Z,60.00
2023-05-16T03:36:28.036Z,64.00
2023-05-16T03:37:28.173Z,72.00
2023-05-16T03:38:28.027Z,80.00
2023-05-16T03:39:28.053Z,88.00
2023-05-16T03:40:28.071Z,96.00
2023-05-16T03:41:27.976Z,104.00
2023-05-16T03:42:28.094Z,108.00
2023-05-16T03:43:27.990Z,120.00
2023-05-16T03:44:28.222Z,132.00
2023-05-16T03:45:28.255Z,136.00
2023-05-16T03:46:28.034Z,148.00
2023-05-16T03:47:27.944Z,160.00
2023-05-16T03:48:27.991Z,172.00
2023-05-16T03:49:27.878Z,184.00
2023-05-16T03:50:27.880Z,204.00
2023-05-16T03:51:27.874Z,208.00
2023-05-16T03:52:27.850Z,224.00
2023-05-16T03:53:27.846Z,244.00
2023-05-16T03:54:27.838Z,252.00
2023-05-16T03:55:28.039Z,272.00
2023-05-16T03:56:27.904Z,280.00
2023-05-16T03:57:27.797Z,300.00
2023-05-16T03:58:27.902Z,312.00
2023-05-16T03:59:27.798Z,332.00
2023-05-16T04:00:27.740Z,348.00
2023-05-16T04:01:27.750Z,372.00
2023-05-16T04:02:28.495Z,380.00
2023-05-16T04:03:27.811Z,400.00
2023-05-16T04:04:27.746Z,432.00
2023-05-16T04:05:27.995Z,440.00
2023-05-16T04:06:27.750Z,464.00
2023-05-16T04:07:27.795Z,484.00
2023-05-16T04:08:27.706Z,508.00
2023-05-16T04:09:27.652Z,528.00
2023-05-16T04:10:27.696Z,556.00
2023-05-16T04:11:27.670Z,580.00
2023-05-16T04:12:27.591Z,608.00
2023-05-16T04:13:27.680Z,640.00
2023-05-16T04:14:27.583Z,652.00
2023-05-16T04:15:27.875Z,672.00
2023-05-16T04:16:27.628Z,692.00
2023-05-16T04:17:27.582Z,712.00
2023-05-16T04:18:27.565Z,736.00
2023-05-16T04:19:27.548Z,760.00
2023-05-16T04:20:27.782Z,768.00
2023-05-16T04:21:27.532Z,792.00
2023-05-16T04:22:27.610Z,808.00
2023-05-16T04:23:27.477Z,836.00
2023-05-16T04:24:27.564Z,864.00
2023-05-16T04:25:27.962Z,888.00
2023-05-16T04:26:27.439Z,904.00
2023-05-16T04:27:27.500Z,920.00
2023-05-16T04:28:27.467Z,944.00
2023-05-16T04:29:27.381Z,968.00
2023-05-16T04:30:27.414Z,1000.00
2023-05-16T04:31:27.361Z,1028.00
2023-05-16T04:32:27.562Z,1060.00
2023-05-16T04:33:27.539Z,1064.00
2023-05-16T04:34:27.340Z,1072.00
2023-05-16T04:35:27.641Z,1092.00
2023-05-16T04:36:27.402Z,1104.00
2023-05-16T04:37:27.408Z,1132.00
2023-05-16T04:38:27.408Z,1248.00
2023-05-16T04:39:27.388Z,2788.00
2023-05-16T04:40:27.284Z,3288.00
2023-05-16T04:41:27.366Z,1988.00
2023-05-16T04:42:27.334Z,1240.00
2023-05-16T04:43:27.215Z,1248.00
2023-05-16T04:44:27.551Z,1264.00
2023-05-16T04:45:27.450Z,1300.00
2023-05-16T04:46:27.198Z,1352.00
2023-05-16T04:47:27.238Z,1336.00
2023-05-16T04:48:27.178Z,1332.00
2023-05-16T04:49:27.148Z,1380.00
2023-05-16T04:50:27.110Z,1416.00
2023-05-16T04:51:27.172Z,1408.00
2023-05-16T04:52:27.095Z,1356.00
2023-05-16T04:53:27.130Z,1356.00
2023-05-16T04:54:27.101Z,1408.00
2023-05-16T04:55:27.433Z,1416.00
2023-05-16T04:56:27.078Z,1692.00
2023-05-16T04:57:27.107Z,1540.00
2023-05-16T04:58:27.068Z,2052.00
2023-05-16T04:59:27.246Z,1752.00
2023-05-16T05:00:27.221Z,1764.00
2023-05-16T05:01:27.226Z,1804.00
2023-05-16T05:02:28.013Z,1696.00
2023-05-16T05:03:27.061Z,1692.00
2023-05-16T05:04:27.224Z,1776.00
2023-05-16T05:05:27.309Z,2164.00
2023-05-16T05:06:27.345Z,2220.00
2023-05-16T05:07:27.139Z,2540.00
2023-05-16T05:08:26.948Z,2524.00
2023-05-16T05:09:26.938Z,2244.00
2023-05-16T05:10:26.908Z,2544.00
2023-05-16T05:11:26.888Z,2264.00
2023-05-16T05:12:26.972Z,2072.00
2023-05-16T05:13:26.925Z,3228.00
2023-05-16T05:14:26.913Z,3324.00
2023-05-16T05:15:26.963Z,2488.00
2023-05-16T05:16:26.828Z,1960.00
2023-05-16T05:17:26.913Z,2068.00
2023-05-16T05:18:26.845Z,2196.00
2023-05-16T05:19:26.871Z,2236.00
2023-05-16T05:20:26.750Z,3072.00
2023-05-16T05:21:26.749Z,2780.00
2023-05-16T05:22:26.765Z,2068.00
2023-05-16T05:23:26.843Z,2024.00
2023-05-16T05:24:26.708Z,1936.00
2023-05-16T05:25:27.022Z,1932.00
2023-05-16T05:26:26.685Z,1944.00
2023-05-16T05:27:26.774Z,1976.00
2023-05-16T05:28:26.763Z,2000.00
2023-05-16T05:29:26.808Z,2000.00
2023-05-16T05:30:26.674Z,1992.00
2023-05-16T05:31:26.671Z,2068.00
2023-05-16T05:32:26.665Z,2008.00
2023-05-16T05:33:26.646Z,1984.00
2023-05-16T05:34:26.686Z,2108.00
2023-05-16T05:35:26.756Z,2096.00
2023-05-16T05:36:26.555Z,2180.00
2023-05-16T05:37:26.597Z,2272.00
2023-05-16T05:38:26.518Z,2216.00
2023-05-16T05:39:26.584Z,2228.00
2023-05-16T05:40:26.494Z,2408.00
2023-05-16T05:41:26.606Z,2500.00
2023-05-16T05:42:26.507Z,2568.00
2023-05-16T05:43:26.501Z,2776.00
2023-05-16T05:44:26.446Z,3116.00
2023-05-16T05:45:26.668Z,2836.00
2023-05-16T05:46:26.480Z,3780.00
2023-05-16T05:47:26.555Z,3948.00
2023-05-16T05:48:26.392Z,2704.00
2023-05-16T05:49:26.474Z,2564.00
2023-05-16T05:50:26.401Z,2556.00
2023-05-16T05:51:26.414Z,2316.00
2023-05-16T05:52:26.388Z,2228.00
2023-05-16T05:53:26.386Z,2164.00
2023-05-16T05:54:26.334Z,2380.00
2023-05-16T05:55:26.688Z,2348.00
2023-05-16T05:56:26.324Z,2468.00
2023-05-16T05:57:26.358Z,2808.00
2023-05-16T05:58:26.340Z,2572.00
2023-05-16T05:59:26.362Z,2852.00
2023-05-16T06:00:26.233Z,2452.00
2023-05-16T06:01:26.256Z,2636.00
2023-05-16T06:02:26.420Z,2612.00
2023-05-16T06:03:26.282Z,2492.00
2023-05-16T06:04:26.176Z,2620.00
2023-05-16T06:05:26.411Z,2304.00
2023-05-16T06:06:26.252Z,2284.00
2023-05-16T06:07:26.253Z,2352.00
2023-05-16T06:08:26.153Z,2736.00
2023-05-16T06:09:26.323Z,2712.00
2023-05-16T06:10:26.129Z,2480.00
2023-05-16T06:11:26.254Z,2440.00
2023-05-16T06:12:26.102Z,2292.00
2023-05-16T06:13:26.184Z,2372.00
2023-05-16T06:14:26.106Z,2276.00
2023-05-16T06:15:26.301Z,2308.00
2023-05-16T06:16:26.090Z,2340.00
2023-05-16T06:17:26.082Z,2352.00
2023-05-16T06:18:26.008Z,2640.00
2023-05-16T06:19:26.225Z,2440.00
2023-05-16T06:20:25.997Z,2416.00
2023-05-16T06:21:25.993Z,2464.00
2023-05-16T06:22:25.991Z,2500.00
2023-05-16T06:23:25.968Z,2444.00
2023-05-16T06:24:25.987Z,2532.00
2023-05-16T06:25:26.203Z,2392.00
2023-05-16T06:26:25.971Z,2404.00
2023-05-16T06:27:25.910Z,2600.00
2023-05-16T06:28:25.896Z,2360.00
2023-05-16T06:29:25.883Z,2144.00
2023-05-16T06:30:25.961Z,2372.00
2023-05-16T06:31:25.860Z,2408.00
2023-05-16T06:32:25.877Z,2332.00
2023-05-16T06:33:25.832Z,2320.00
2023-05-16T06:34:25.904Z,1948.00
2023-05-16T06:35:25.966Z,2452.00
2023-05-16T06:36:25.741Z,2596.00
2023-05-16T06:37:25.743Z,2040.00
2023-05-16T06:38:25.769Z,2276.00
2023-05-16T06:39:25.787Z,2332.00
2023-05-16T06:40:25.731Z,2200.00
2023-05-16T06:41:25.801Z,2188.00
2023-05-16T06:42:25.839Z,2192.00
2023-05-16T06:43:25.658Z,1920.00
2023-05-16T06:44:33.252Z,2296.00
2023-05-16T06:45:25.836Z,2276.00
2023-05-16T06:46:25.811Z,2240.00
2023-05-16T06:47:25.726Z,2276.00
2023-05-16T06:48:25.716Z,2344.00
2023-05-16T06:49:25.624Z,2512.00
2023-05-16T06:50:25.640Z,2372.00
2023-05-16T06:51:25.620Z,2520.00
2023-05-16T06:52:25.688Z,2668.00
2023-05-16T06:53:25.687Z,2648.00
2023-05-16T06:54:25.532Z,2536.00
2023-05-16T06:55:25.720Z,2388.00
2023-05-16T06:56:25.540Z,2340.00
2023-05-16T06:57:25.514Z,2168.00
2023-05-16T06:58:25.486Z,2420.00
2023-05-16T06:59:26.885Z,2652.00
2023-05-16T07:00:25.455Z,2668.00
2023-05-16T07:01:25.547Z,2928.00
2023-05-16T07:02:25.534Z,2508.00
2023-05-16T07:03:25.525Z,2440.00
2023-05-16T07:04:25.482Z,2688.00
2023-05-16T07:05:25.532Z,2552.00
2023-05-16T07:06:25.368Z,2276.00
2023-05-16T07:07:25.371Z,2256.00
2023-05-16T07:08:25.371Z,2260.00
2023-05-16T07:09:25.350Z,2368.00
2023-05-16T07:10:25.411Z,2464.00
2023-05-16T07:11:25.367Z,2364.00
2023-05-16T07:12:25.377Z,2420.00
2023-05-16T07:13:25.305Z,2464.00
2023-05-16T07:14:26.054Z,2708.00
2023-05-16T07:15:25.475Z,2820.00
2023-05-16T07:16:25.269Z,2668.00
2023-05-16T07:17:25.291Z,2408.00
2023-05-16T07:18:25.251Z,2532.00
2023-05-16T07:19:25.345Z,2316.00
2023-05-16T07:20:25.256Z,2608.00
2023-05-16T07:21:25.313Z,2648.00
2023-05-16T07:22:25.194Z,2644.00
2023-05-16T07:23:25.193Z,2588.00
2023-05-16T07:24:25.122Z,2548.00
2023-05-16T07:25:25.223Z,1952.00
2023-05-16T07:26:25.090Z,2312.00
2023-05-16T07:27:25.186Z,2656.00
2023-05-16T07:28:25.078Z,2708.00
2023-05-16T07:29:25.057Z,2676.00
2023-05-16T07:30:25.312Z,2800.00
2023-05-16T07:31:25.056Z,2812.00
2023-05-16T07:32:25.044Z,2980.00
2023-05-16T07:33:25.008Z,3080.00
2023-05-16T07:34:25.016Z,2732.00
2023-05-16T07:35:25.002Z,2988.00
2023-05-16T07:36:24.965Z,3036.00
2023-05-16T07:37:24.895Z,3248.00
2023-05-16T07:38:25.003Z,2972.00
2023-05-16T07:39:24.921Z,3108.00
2023-05-16T07:40:24.939Z,2828.00
2023-05-16T07:41:24.862Z,2356.00
2023-05-16T07:42:24.850Z,2840.00
2023-05-16T07:43:25.549Z,2864.00
2023-05-16T07:44:24.846Z,2864.00
2023-05-16T07:45:24.802Z,2932.00
2023-05-16T07:46:24.838Z,2948.00
2023-05-16T07:47:24.890Z,3040.00
2023-05-16T07:48:24.776Z,2916.00
2023-05-16T07:49:24.726Z,3516.00
2023-05-16T07:50:24.751Z,2700.00
2023-05-16T07:51:24.739Z,3288.00
2023-05-16T07:52:24.723Z,3100.00
2023-05-16T07:53:24.745Z,2320.00
2023-05-16T07:54:24.693Z,2536.00
2023-05-16T07:55:24.790Z,2324.00
2023-05-16T07:56:24.729Z,3076.00
2023-05-16T07:57:25.259Z,3200.00
2023-05-16T07:58:24.594Z,3112.00
2023-05-16T07:59:24.622Z,2796.00
2023-05-16T08:00:24.621Z,3320.00
2023-05-16T08:01:24.593Z,3476.00
2023-05-16T08:02:24.746Z,3748.00
2023-05-16T08:03:24.754Z,4068.00
2023-05-16T08:04:24.557Z,3884.00
2023-05-16T08:05:24.606Z,4420.00
2023-05-16T08:06:24.520Z,5432.00
2023-05-16T08:07:24.473Z,3956.00
2023-05-16T08:08:24.442Z,4024.00
2023-05-16T08:09:24.516Z,4328.00
2023-05-16T08:10:24.432Z,4420.00
2023-05-16T08:11:24.407Z,5048.00
2023-05-16T08:12:24.417Z,4856.00
2023-05-16T08:13:24.389Z,4804.00
2023-05-16T08:14:24.383Z,4800.00
2023-05-16T08:15:24.391Z,4732.00
2023-05-16T08:16:24.357Z,4320.00
2023-05-16T08:17:24.369Z,4320.00
2023-05-16T08:18:24.415Z,4164.00
2023-05-16T08:19:24.379Z,3856.00
2023-05-16T08:20:24.269Z,4560.00
2023-05-16T08:21:24.269Z,3456.00
2023-05-16T08:22:24.361Z,3084.00
2023-05-16T08:23:24.228Z,3356.00
2023-05-16T08:24:24.303Z,3816.00
2023-05-16T08:25:24.241Z,3964.00
2023-05-16T08:26:24.216Z,3848.00
2023-05-16T08:27:24.168Z,3392.00
2023-05-16T08:28:24.180Z,3116.00
2023-05-16T08:29:24.145Z,2760.00
2023-05-16T08:30:24.170Z,2640.00
2023-05-16T08:31:24.181Z,3332.00
2023-05-16T08:32:24.101Z,3312.00
2023-05-16T08:33:24.093Z,3252.00
2023-05-16T08:34:24.079Z,2464.00
2023-05-16T08:35:24.113Z,3168.00
2023-05-16T08:36:24.074Z,3128.00
2023-05-16T08:37:24.034Z,3032.00
2023-05-16T08:38:23.999Z,3212.00
2023-05-16T08:39:23.995Z,3256.00
2023-05-16T08:40:24.007Z,3228.00
2023-05-16T08:41:23.974Z,3200.00
2023-05-16T08:42:23.980Z,3308.00
2023-05-16T08:43:23.964Z,3304.00
2023-05-16T08:44:23.927Z,3264.00
2023-05-16T08:45:23.935Z,3132.00
2023-05-16T08:46:24.019Z,3220.00
2023-05-16T08:47:23.898Z,3184.00
2023-05-16T08:48:23.957Z,3284.00
2023-05-16T08:49:23.876Z,3384.00
2023-05-16T08:50:23.860Z,3396.00
2023-05-16T08:51:23.867Z,3524.00
2023-05-16T08:52:23.797Z,3620.00
2023-05-16T08:53:25.562Z,4000.00
2023-05-16T08:54:24.564Z,4492.00
2023-05-16T08:55:23.764Z,4716.00
2023-05-16T08:56:23.775Z,5032.00
2023-05-16T08:57:23.742Z,5396.00
2023-05-16T08:58:23.741Z,6116.00
2023-05-16T08:59:23.743Z,6564.00
2023-05-16T09:00:23.740Z,6384.00
2023-05-16T09:01:23.749Z,5888.00
2023-05-16T09:02:23.671Z,4300.00
2023-05-16T09:03:23.759Z,4524.00
2023-05-16T09:04:23.872Z,3528.00
2023-05-16T09:05:23.639Z,3628.00
2023-05-16T09:06:23.702Z,3860.00
2023-05-16T09:07:23.602Z,4152.00
2023-05-16T09:08:23.581Z,4820.00
2023-05-16T09:09:23.622Z,6104.00
2023-05-16T09:10:23.557Z,6488.00
2023-05-16T09:11:23.614Z,6480.00
2023-05-16T09:12:23.536Z,5532.00
2023-05-16T09:13:23.541Z,6152.00
2023-05-16T09:14:23.497Z,4636.00
2023-05-16T09:15:23.492Z,4744.00
2023-05-16T09:16:23.538Z,3312.00
2023-05-16T09:17:32.237Z,2988.00
2023-05-16T09:18:24.495Z,2560.00
2023-05-16T09:19:23.567Z,2468.00
2023-05-16T09:20:23.413Z,2464.00
2023-05-16T09:21:23.559Z,2520.00
2023-05-16T09:22:23.396Z,2496.00
2023-05-16T09:23:23.364Z,2404.00
2023-05-16T09:24:23.397Z,2492.00
2023-05-16T09:26:23.365Z,3256.00
2023-05-16T09:27:23.313Z,3856.00
2023-05-16T09:28:23.318Z,5960.00
2023-05-16T09:29:23.307Z,6812.00
2023-05-16T09:30:23.308Z,7048.00
2023-05-16T09:31:23.308Z,6864.00
2023-05-16T09:32:23.259Z,5684.00
2023-05-16T09:33:23.265Z,4684.00
2023-05-16T09:34:23.253Z,4364.00
2023-05-16T09:35:39.175Z,4160.00
2023-05-16T09:36:24.241Z,3908.00
2023-05-16T09:37:23.183Z,3904.00
2023-05-16T09:38:23.177Z,3672.00
2023-05-16T09:39:23.156Z,3392.00
2023-05-16T09:40:23.151Z,3364.00
2023-05-16T09:41:23.111Z,3356.00
2023-05-16T09:42:23.157Z,3276.00
2023-05-16T09:43:23.117Z,3440.00
2023-05-16T09:44:23.120Z,3636.00
2023-05-16T09:45:23.069Z,3776.00
2023-05-16T09:46:23.229Z,3812.00
2023-05-16T09:47:23.065Z,3812.00
2023-05-16T09:48:23.037Z,3968.00
2023-05-16T09:49:23.026Z,4124.00
2023-05-16T09:50:23.013Z,4600.00
2023-05-16T09:51:22.990Z,5184.00
2023-05-16T09:52:22.973Z,5436.00
2023-05-16T09:53:23.053Z,5488.00
2023-05-16T09:54:23.016Z,5648.00
2023-05-16T09:55:22.923Z,6060.00
2023-05-16T09:56:22.942Z,6700.00
2023-05-16T09:57:22.945Z,7008.00
2023-05-16T09:58:22.947Z,8320.00
2023-05-16T09:59:23.000Z,8788.00
2023-05-16T10:00:22.881Z,8704.00
2023-05-16T10:01:22.917Z,8204.00
2023-05-16T10:02:22.999Z,7140.00
2023-05-16T10:03:22.916Z,6288.00
2023-05-16T10:04:23.115Z,6196.00
2023-05-16T10:05:22.833Z,6472.00
2023-05-16T10:06:22.790Z,6640.00
2023-05-16T10:07:22.795Z,6584.00
2023-05-16T10:08:22.767Z,6048.00
2023-05-16T10:09:22.781Z,5396.00
2023-05-16T10:10:22.775Z,4556.00
2023-05-16T10:11:22.775Z,4216.00
2023-05-16T10:12:22.800Z,3996.00
2023-05-16T10:13:22.728Z,3904.00
2023-05-16T10:14:22.674Z,3832.00
2023-05-16T10:15:22.686Z,4168.00
2023-05-16T10:16:22.675Z,4952.00
2023-05-16T10:17:22.692Z,5636.00
2023-05-16T10:18:22.626Z,6112.00
2023-05-16T10:19:22.700Z,6344.00
2023-05-16T10:20:22.580Z,6672.00
2023-05-16T10:21:22.638Z,8256.00
2023-05-16T10:22:22.586Z,8232.00
2023-05-16T10:23:22.564Z,8576.00
2023-05-16T10:24:22.539Z,8712.00
2023-05-16T10:25:22.522Z,7616.00
2023-05-16T10:26:22.538Z,6948.00
2023-05-16T10:27:22.555Z,5472.00
2023-05-16T10:28:22.507Z,4548.00
2023-05-16T10:29:22.450Z,3968.00
2023-05-16T10:30:22.518Z,3460.00
2023-05-16T10:31:22.607Z,3024.00
2023-05-16T10:32:22.493Z,2672.00
2023-05-16T10:33:22.435Z,2348.00
2023-05-16T10:34:22.423Z,2216.00
2023-05-16T10:35:22.430Z,2252.00
2023-05-16T10:36:22.419Z,2436.00
2023-05-16T10:37:22.389Z,2696.00
2023-05-16T10:38:22.331Z,2996.00
2023-05-16T10:39:22.446Z,3504.00
2023-05-16T10:40:22.334Z,4208.00
2023-05-16T10:41:22.296Z,4632.00
2023-05-16T10:42:22.296Z,4808.00
2023-05-16T10:43:22.293Z,4624.00
2023-05-16T10:44:22.255Z,4252.00
2023-05-16T10:45:22.257Z,3792.00
2023-05-16T10:46:22.232Z,3404.00
2023-05-16T10:47:22.210Z,3088.00
2023-05-16T10:48:22.283Z,2932.00
2023-05-16T10:49:22.188Z,2728.00
2023-05-16T10:50:22.225Z,3616.00
2023-05-16T10:51:22.148Z,4676.00
2023-05-16T10:52:22.162Z,4540.00
2023-05-16T10:53:22.200Z,4352.00
2023-05-16T10:54:22.116Z,4444.00
2023-05-16T10:55:22.126Z,4516.00
2023-05-16T10:56:22.138Z,4824.00
2023-05-16T10:57:22.308Z,4932.00
2023-05-16T10:58:22.077Z,5040.00
2023-05-16T10:59:25.660Z,5268.00
2023-05-16T11:00:22.030Z,5724.00
2023-05-16T11:01:22.133Z,6316.00
2023-05-16T11:02:22.027Z,7400.00
2023-05-16T11:03:22.110Z,8268.00
2023-05-16T11:04:21.990Z,9164.00
2023-05-16T11:05:21.985Z,10064.00
2023-05-16T11:06:23.586Z,10432.00
2023-05-16T11:07:22.027Z,9424.00
2023-05-16T11:08:21.956Z,10848.00
2023-05-16T11:09:21.938Z,8388.00
2023-05-16T11:10:21.953Z,7788.00
2023-05-16T11:11:21.881Z,7504.00
2023-05-16T11:12:21.987Z,7544.00
2023-05-16T11:13:21.867Z,7540.00
2023-05-16T11:14:21.863Z,7304.00
2023-05-16T11:15:21.873Z,7064.00
2023-05-16T11:16:21.863Z,6276.00
2023-05-16T11:17:21.846Z,5636.00
2023-05-16T11:18:21.910Z,5312.00
2023-05-16T11:19:21.799Z,4948.00
2023-05-16T11:20:21.828Z,4440.00
2023-05-16T11:21:21.859Z,4176.00
2023-05-16T11:22:21.742Z,3748.00
2023-05-16T11:23:21.810Z,3452.00
2023-05-16T11:24:21.726Z,3312.00
2023-05-16T11:25:21.722Z,3576.00
2023-05-16T11:26:21.703Z,3636.00
2023-05-16T11:27:21.694Z,3860.00
2023-05-16T11:28:21.685Z,4068.00
2023-05-16T11:29:21.687Z,4212.00
2023-05-16T11:30:21.650Z,4256.00
2023-05-16T11:31:21.690Z,4064.00
2023-05-16T11:32:21.645Z,3888.00
2023-05-16T11:33:21.691Z,3556.00
2023-05-16T11:34:21.588Z,3552.00
2023-05-16T11:35:21.559Z,3364.00
2023-05-16T11:36:21.552Z,3436.00
2023-05-16T11:37:21.552Z,3508.00
2023-05-16T11:38:21.530Z,3392.00
2023-05-16T11:39:21.511Z,3316.00
2023-05-16T11:40:21.534Z,3356.00
2023-05-16T11:41:21.488Z,3380.00
2023-05-16T11:42:21.469Z,3748.00
2023-05-16T11:43:21.470Z,3464.00
2023-05-16T11:44:21.445Z,5232.00
2023-05-16T11:45:21.446Z,3008.00
2023-05-16T11:46:21.478Z,2940.00
2023-05-16T11:47:21.383Z,3312.00
2023-05-16T11:48:32.473Z,5896.00
2023-05-16T11:49:22.429Z,5856.00
2023-05-16T11:50:21.356Z,5784.00
2023-05-16T11:51:21.339Z,5808.00
2023-05-16T11:52:21.331Z,5844.00
2023-05-16T11:53:21.325Z,5876.00
2023-05-16T11:54:21.290Z,6008.00
2023-05-16T11:55:32.482Z,5984.00
2023-05-16T11:56:22.288Z,6028.00
2023-05-16T11:57:21.259Z,6020.00
2023-05-16T11:58:21.261Z,6020.00
2023-05-16T11:59:21.242Z,5984.00
2023-05-16T12:00:21.260Z,6048.00
2023-05-16T12:01:21.208Z,6068.00
2023-05-16T12:02:21.208Z,6228.00
2023-05-16T12:03:21.339Z,6616.00
2023-05-16T12:04:21.378Z,6544.00
2023-05-16T12:05:21.223Z,6736.00
2023-05-16T12:06:21.200Z,6948.00
2023-05-16T12:07:23.264Z,7284.00
2023-05-16T12:08:21.121Z,7408.00
2023-05-16T12:09:21.102Z,4256.00
2023-05-16T12:10:21.097Z,3316.00
2023-05-16T12:11:21.061Z,3120.00
2023-05-16T12:12:21.064Z,3464.00
2023-05-16T12:13:21.039Z,6840.00
2023-05-16T12:14:21.034Z,3336.00
2023-05-16T12:15:21.052Z,7048.00
2023-05-16T12:16:21.038Z,7068.00
2023-05-16T12:17:20.999Z,7424.00
2023-05-16T12:18:20.977Z,4332.00
2023-05-16T12:19:20.981Z,8564.00
2023-05-16T12:20:20.976Z,8644.00
2023-05-16T12:21:20.945Z,8872.00
2023-05-16T12:22:21.001Z,8568.00
2023-05-16T12:23:20.923Z,8284.00
2023-05-16T12:24:20.904Z,8408.00
2023-05-16T12:25:20.911Z,8912.00
2023-05-16T12:26:20.866Z,9068.00
2023-05-16T12:27:20.870Z,7984.00